createdAt,value
2017-08-04T00:01:27.166Z,67.10
2017-08-04T00:03:55.503Z,67.10
2017-08-04T00:06:23.146Z,67.10
2017-08-04T00:08:50.728Z,67.00
2017-08-04T00:11:18.316Z,67.00
2017-08-04T00:13:45.940Z,66.90
2017-08-04T00:16:13.510Z,67.00
2017-08-04T00:18:41.096Z,67.50
2017-08-04T00:21:09.490Z,67.80
2017-08-04T00:23:37.073Z,67.80
2017-08-04T00:26:04.642Z,67.80
2017-08-04T00:28:33.040Z,68.20
2017-08-04T00:31:00.628Z,68.20
2017-08-04T00:33:28.213Z,67.80
2017-08-04T00:35:55.853Z,68.00
2017-08-04T00:38:23.422Z,68.00
2017-08-04T00:40:51.009Z,68.00
2017-08-04T00:43:18.630Z,67.90
2017-08-04T00:45:46.203Z,68.10
2017-08-04T00:48:13.784Z,67.90
2017-08-04T00:50:41.403Z,68.30
2017-08-04T00:53:08.970Z,68.10
2017-08-04T00:55:36.558Z,68.00
2017-08-04T00:58:04.933Z,68.40
2017-08-04T01:00:33.296Z,68.50
2017-08-04T01:03:00.885Z,68.50
2017-08-04T01:05:28.516Z,68.50
2017-08-04T01:07:56.123Z,68.40
2017-08-04T01:10:24.486Z,67.90
2017-08-04T01:12:52.885Z,67.70
2017-08-04T01:15:20.468Z,67.70
2017-08-04T01:17:48.048Z,67.40
2017-08-04T01:20:15.659Z,67.60
2017-08-04T01:22:43.231Z,67.40
2017-08-04T01:25:10.821Z,67.00
2017-08-04T01:27:38.457Z,66.20
2017-08-04T01:30:06.058Z,66.50
2017-08-04T01:32:34.422Z,66.80
2017-08-04T01:35:02.070Z,66.80
2017-08-04T01:37:29.657Z,66.90
2017-08-04T01:39:57.233Z,67.00
2017-08-04T01:42:24.862Z,67.40
2017-08-04T01:44:52.425Z,67.10
2017-08-04T01:47:20.008Z,67.10
2017-08-04T01:49:47.809Z,67.30
2017-08-04T01:52:15.402Z,67.50
2017-08-04T01:54:42.999Z,67.40
2017-08-04T01:57:10.619Z,67.60
2017-08-04T01:59:38.201Z,67.60
2017-08-04T02:02:05.771Z,67.60
2017-08-04T02:04:33.411Z,67.80
2017-08-04T02:07:00.997Z,68.20
2017-08-04T02:09:28.584Z,67.90
2017-08-04T02:11:56.236Z,67.70
2017-08-04T02:14:23.814Z,67.80
2017-08-04T02:16:52.164Z,67.80
2017-08-04T02:19:20.056Z,67.80
2017-08-04T02:21:47.654Z,67.60
2017-08-04T02:24:15.232Z,67.30
2017-08-04T02:26:42.858Z,67.30
2017-08-04T02:29:11.223Z,67.90
2017-08-04T02:31:39.573Z,66.80
2017-08-04T02:34:07.208Z,66.80
2017-08-04T02:36:34.792Z,66.50
2017-08-04T02:39:02.396Z,66.60
2017-08-04T02:41:30.025Z,67.00
2017-08-04T02:43:57.604Z,66.60
2017-08-04T02:46:25.953Z,66.60
2017-08-04T02:48:54.362Z,66.70
2017-08-04T02:51:21.939Z,66.50
2017-08-04T02:53:49.529Z,66.80
2017-08-04T02:56:17.158Z,66.50
2017-08-04T02:58:45.508Z,67.20
2017-08-04T03:01:13.877Z,66.50
2017-08-04T03:03:42.289Z,67.30
2017-08-04T03:06:09.873Z,67.30
2017-08-04T03:08:37.471Z,67.70
2017-08-04T03:11:05.282Z,67.80
2017-08-04T03:13:33.633Z,68.10
2017-08-04T03:16:01.227Z,68.00
2017-08-04T03:18:28.855Z,68.00
2017-08-04T03:20:56.441Z,68.50
2017-08-04T03:23:24.033Z,68.60
2017-08-04T03:25:51.651Z,68.90
2017-08-04T03:28:19.232Z,68.80
2017-08-04T03:30:46.817Z,68.70
2017-08-04T03:33:14.430Z,69.10
2017-08-04T03:35:42.007Z,69.50
2017-08-04T03:38:09.601Z,69.70
2017-08-04T03:40:37.223Z,70.00
2017-08-04T03:43:04.856Z,70.00
2017-08-04T03:45:32.454Z,69.80
2017-08-04T03:48:00.077Z,69.60
2017-08-04T03:50:27.684Z,69.50
2017-08-04T03:52:55.255Z,69.30
2017-08-04T03:55:22.859Z,69.50
2017-08-04T03:57:50.450Z,69.50
2017-08-04T04:00:18.028Z,69.50
2017-08-04T04:02:46.436Z,69.50
2017-08-04T04:05:14.016Z,69.50
2017-08-04T04:07:41.582Z,69.60
2017-08-04T04:10:10.116Z,70.00
2017-08-04T04:12:37.684Z,69.90
2017-08-04T04:15:06.038Z,70.20
2017-08-04T04:17:33.741Z,69.70
2017-08-04T04:20:01.323Z,69.70
2017-08-04T04:22:28.914Z,69.80
2017-08-04T04:24:56.788Z,69.50
2017-08-04T04:27:24.383Z,69.40
2017-08-04T04:29:52.723Z,68.30
2017-08-04T04:32:20.334Z,68.10
2017-08-04T04:34:48.007Z,67.80
2017-08-04T04:37:15.589Z,67.30
2017-08-04T04:39:43.980Z,67.40
2017-08-04T04:42:11.550Z,67.40
2017-08-04T04:44:39.971Z,67.00
2017-08-04T04:47:07.591Z,67.00
2017-08-04T04:49:35.229Z,67.10
2017-08-04T04:52:02.816Z,67.20
2017-08-04T04:54:30.616Z,67.20
2017-08-04T04:56:58.219Z,67.10
2017-08-04T04:59:26.578Z,64.50
2017-08-04T05:01:54.198Z,64.50
2017-08-04T05:04:21.770Z,63.80
2017-08-04T05:06:49.343Z,63.50
2017-08-04T05:09:17.009Z,63.40
2017-08-04T05:11:44.597Z,63.40
2017-08-04T05:14:12.180Z,63.60
2017-08-04T05:16:39.808Z,64.10
2017-08-04T05:19:08.164Z,62.40
2017-08-04T05:21:36.512Z,61.40
2017-08-04T05:24:04.139Z,61.40
2017-08-04T05:26:31.743Z,60.00
2017-08-04T05:28:59.352Z,59.30
2017-08-04T05:31:27.749Z,58.80
2017-08-04T05:33:55.332Z,58.10
2017-08-04T05:36:22.907Z,58.30
2017-08-04T05:38:51.390Z,59.40
2017-08-04T05:41:18.986Z,59.40
2017-08-04T05:43:46.573Z,57.00
2017-08-04T05:46:14.204Z,53.50
2017-08-04T05:48:42.552Z,49.40
2017-08-04T05:51:10.140Z,49.30
2017-08-04T05:53:37.773Z,47.70
2017-08-04T05:56:05.359Z,46.00
2017-08-04T05:58:32.940Z,45.30
2017-08-04T06:01:01.319Z,47.20
2017-08-04T06:03:28.914Z,47.20
2017-08-04T06:05:56.496Z,46.80
2017-08-04T06:08:24.898Z,50.60
2017-08-04T06:10:52.476Z,50.60
2017-08-04T06:13:20.056Z,52.10
2017-08-04T06:15:47.666Z,54.00
2017-08-04T06:18:15.250Z,55.00
2017-08-04T06:20:42.841Z,56.60
2017-08-04T06:23:10.499Z,57.80
2017-08-04T06:25:38.094Z,59.10
2017-08-04T06:28:05.677Z,59.80
2017-08-04T06:30:33.326Z,60.30
2017-08-04T06:33:00.894Z,61.00
2017-08-04T06:35:29.227Z,61.70
2017-08-04T06:37:56.842Z,61.70
2017-08-04T06:40:25.202Z,61.20
2017-08-04T06:42:53.545Z,60.40
2017-08-04T06:45:21.189Z,60.20
2017-08-04T06:47:48.776Z,59.80
2017-08-04T06:50:28.491Z,59.30
2017-08-04T06:53:08.758Z,59.80
2017-08-04T06:55:57.941Z,59.80
2017-08-04T06:58:25.531Z,59.30
2017-08-04T07:00:53.103Z,59.00
2017-08-04T07:03:20.740Z,58.30
2017-08-04T07:05:48.323Z,57.40
2017-08-04T07:08:15.914Z,56.80
2017-08-04T07:10:43.547Z,56.60
2017-08-04T07:13:11.897Z,55.30
2017-08-04T07:15:40.272Z,55.60
2017-08-04T07:18:07.913Z,55.50
2017-08-04T07:20:36.256Z,56.30
2017-08-04T07:23:03.846Z,56.20
2017-08-04T07:25:31.481Z,56.90
2017-08-04T07:27:59.058Z,58.10
2017-08-04T07:30:26.626Z,58.90
2017-08-04T07:32:54.272Z,59.80
2017-08-04T07:35:21.871Z,60.20
2017-08-04T07:37:49.461Z,60.70
2017-08-04T07:40:17.299Z,60.90
2017-08-04T07:42:45.684Z,60.30
2017-08-04T07:45:13.255Z,60.00
2017-08-04T07:47:40.875Z,60.00
2017-08-04T07:50:08.482Z,60.10
2017-08-04T07:52:36.078Z,60.20
2017-08-04T07:55:03.696Z,59.70
2017-08-04T07:57:32.058Z,60.10
2017-08-04T08:00:00.413Z,59.70
2017-08-04T08:02:28.810Z,59.70
2017-08-04T08:04:56.380Z,59.60
2017-08-04T08:07:23.986Z,59.30
2017-08-04T08:09:51.616Z,58.90
2017-08-04T08:12:19.951Z,59.30
2017-08-04T08:14:47.526Z,59.20
2017-08-04T08:17:15.915Z,58.40
2017-08-04T08:19:43.479Z,58.40
2017-08-04T08:22:11.070Z,58.30
2017-08-04T08:24:39.458Z,56.30
2017-08-04T08:27:07.049Z,57.30
2017-08-04T08:29:34.628Z,55.10
2017-08-04T08:32:03.006Z,53.70
2017-08-04T08:34:30.585Z,53.50
2017-08-04T08:36:58.152Z,52.90
2017-08-04T08:39:25.771Z,52.00
2017-08-04T08:41:53.360Z,52.70
2017-08-04T08:44:20.963Z,53.20
2017-08-04T08:46:48.593Z,53.70
2017-08-04T08:49:16.168Z,53.60
2017-08-04T08:51:43.747Z,54.80
2017-08-04T08:54:11.351Z,55.00
2017-08-04T08:56:38.946Z,55.80
2017-08-04T08:59:06.534Z,56.40
2017-08-04T09:01:34.284Z,56.30
2017-08-04T09:04:01.850Z,56.40
2017-08-04T09:06:30.200Z,54.60
2017-08-04T09:08:57.830Z,54.60
2017-08-04T09:11:25.405Z,53.80
2017-08-04T09:13:53.769Z,53.60
2017-08-04T09:16:22.353Z,53.00
2017-08-04T09:18:49.929Z,53.00
2017-08-04T09:21:17.509Z,51.60
2017-08-04T09:23:45.118Z,51.60
2017-08-04T09:26:12.696Z,51.70
2017-08-04T09:28:40.276Z,52.40
2017-08-04T09:31:08.042Z,52.80
2017-08-04T09:33:35.624Z,53.80
2017-08-04T09:36:03.204Z,54.40
2017-08-04T09:38:30.831Z,54.70
2017-08-04T09:40:58.420Z,55.10
2017-08-04T09:43:26.000Z,54.40
2017-08-04T09:45:53.606Z,53.80
2017-08-04T09:48:21.168Z,52.90
2017-08-04T09:50:49.533Z,53.30
2017-08-04T09:53:17.916Z,52.90
2017-08-04T09:55:45.482Z,52.90
2017-08-04T09:58:13.076Z,52.50
2017-08-04T10:00:41.561Z,53.60
2017-08-04T10:03:09.143Z,52.90
2017-08-04T10:05:36.710Z,53.00
2017-08-04T10:08:04.345Z,52.20
2017-08-04T10:10:31.996Z,52.20
2017-08-04T10:12:59.571Z,51.60
2017-08-04T10:15:27.975Z,50.50
2017-08-04T10:17:55.539Z,50.40
2017-08-04T10:20:23.117Z,50.70
2017-08-04T10:22:51.525Z,50.00
2017-08-04T10:25:19.115Z,49.90
2017-08-04T10:27:46.696Z,50.80
2017-08-04T10:30:14.335Z,51.40
2017-08-04T10:32:42.748Z,50.70
2017-08-04T10:35:10.324Z,50.90
2017-08-04T10:37:37.958Z,50.40
2017-08-04T10:40:05.550Z,49.30
2017-08-04T10:42:33.116Z,48.60
2017-08-04T10:45:00.730Z,47.70
2017-08-04T10:47:28.311Z,47.70
2017-08-04T10:49:55.908Z,48.50
2017-08-04T10:52:23.565Z,48.10
2017-08-04T10:54:51.144Z,48.40
2017-08-04T10:57:18.733Z,48.20
2017-08-04T10:59:46.369Z,48.90
2017-08-04T11:02:13.934Z,49.70
2017-08-04T11:04:41.516Z,50.40
2017-08-04T11:07:09.290Z,49.50
2017-08-04T11:09:37.637Z,49.20
2017-08-04T11:12:05.236Z,49.10
2017-08-04T11:14:32.878Z,49.50
2017-08-04T11:17:00.439Z,48.60
2017-08-04T11:19:28.099Z,48.30
2017-08-04T11:21:56.000Z,48.10
2017-08-04T11:24:23.581Z,48.30
2017-08-04T11:26:51.142Z,48.50
2017-08-04T11:29:18.762Z,48.80
2017-08-04T11:31:46.330Z,48.30
2017-08-04T11:34:13.918Z,47.90
2017-08-04T11:36:41.773Z,49.00
2017-08-04T11:39:09.352Z,49.00
2017-08-04T11:41:36.936Z,49.40
2017-08-04T11:44:04.564Z,49.30
2017-08-04T11:46:32.159Z,49.10
2017-08-04T11:48:59.750Z,49.30
2017-08-04T11:51:27.384Z,49.20
2017-08-04T11:53:54.977Z,50.10
2017-08-04T11:56:22.567Z,49.60
2017-08-04T11:58:51.209Z,49.10
2017-08-04T12:01:18.774Z,49.10
2017-08-04T12:03:46.341Z,49.10
2017-08-04T12:06:14.104Z,49.00
2017-08-04T12:08:41.755Z,49.00
2017-08-04T12:11:09.357Z,49.30
2017-08-04T12:13:36.994Z,49.80
2017-08-04T12:16:04.573Z,49.20
2017-08-04T12:18:32.162Z,48.50
2017-08-04T12:20:59.809Z,49.30
2017-08-04T12:23:27.374Z,49.20
2017-08-04T12:25:54.957Z,48.10
2017-08-04T12:28:22.583Z,48.60
2017-08-04T12:30:50.933Z,49.30
2017-08-04T12:33:19.352Z,48.70
2017-08-04T12:35:47.130Z,48.70
2017-08-04T12:38:14.694Z,48.40
2017-08-04T12:40:42.291Z,48.90
2017-08-04T12:43:10.808Z,49.20
2017-08-04T12:45:38.384Z,49.10
2017-08-04T12:48:05.974Z,49.30
2017-08-04T12:50:33.583Z,49.80
2017-08-04T12:53:02.015Z,50.60
2017-08-04T12:55:29.606Z,50.40
2017-08-04T12:57:57.240Z,50.60
2017-08-04T13:00:25.583Z,50.20
2017-08-04T13:02:53.173Z,50.20
2017-08-04T13:05:21.022Z,50.00
2017-08-04T13:07:48.609Z,50.50
2017-08-04T13:10:16.201Z,50.90
2017-08-04T13:12:43.824Z,49.80
2017-08-04T13:15:12.159Z,50.70
2017-08-04T13:17:39.737Z,50.70
2017-08-04T13:20:08.121Z,51.70
2017-08-04T13:22:35.682Z,51.70
2017-08-04T13:25:03.261Z,52.80
2017-08-04T13:27:30.941Z,52.90
2017-08-04T13:29:59.165Z,52.80
2017-08-04T13:32:26.743Z,52.50
2017-08-04T13:34:54.364Z,51.50
2017-08-04T13:37:21.941Z,51.50
2017-08-04T13:39:49.510Z,51.80
2017-08-04T13:42:17.154Z,51.10
2017-08-04T13:44:44.746Z,50.20
2017-08-04T13:47:13.092Z,50.50
2017-08-04T13:49:40.703Z,49.80
2017-08-04T13:52:08.378Z,49.60
2017-08-04T13:54:35.978Z,49.80
2017-08-04T13:57:03.613Z,49.90
2017-08-04T13:59:31.208Z,50.20
2017-08-04T14:01:58.788Z,50.20
2017-08-04T14:04:27.202Z,51.30
2017-08-04T14:06:54.785Z,51.30
2017-08-04T14:09:23.123Z,52.90
2017-08-04T14:11:50.757Z,52.80
2017-08-04T14:14:18.337Z,52.90
2017-08-04T14:16:46.680Z,53.20
2017-08-04T14:19:14.305Z,53.20
2017-08-04T14:21:41.884Z,52.80
2017-08-04T14:24:10.229Z,52.40
2017-08-04T14:26:37.857Z,52.60
2017-08-04T14:29:05.444Z,53.40
2017-08-04T14:31:33.803Z,52.40
2017-08-04T14:34:02.302Z,52.70
2017-08-04T14:36:29.881Z,53.40
2017-08-04T14:38:57.490Z,53.50
2017-08-04T14:41:25.892Z,55.30
2017-08-04T14:43:53.459Z,54.60
2017-08-04T14:46:21.050Z,55.50
2017-08-04T14:48:49.430Z,57.20
2017-08-04T14:51:16.990Z,57.20
2017-08-04T14:53:44.586Z,57.40
2017-08-04T14:56:12.210Z,56.90
2017-08-04T14:58:39.802Z,56.80
2017-08-04T15:01:07.375Z,56.90
2017-08-04T15:03:34.996Z,55.80
2017-08-04T15:06:02.596Z,55.70
2017-08-04T15:08:30.162Z,56.20
2017-08-04T15:10:58.552Z,55.90
2017-08-04T15:13:26.125Z,55.70
2017-08-04T15:15:53.695Z,56.00
2017-08-04T15:18:21.316Z,56.10
2017-08-04T15:20:48.887Z,56.20
2017-08-04T15:23:16.464Z,55.10
2017-08-04T15:25:44.082Z,54.50
2017-08-04T15:28:11.660Z,54.50
2017-08-04T15:30:39.254Z,53.70
2017-08-04T15:33:06.881Z,52.80
2017-08-04T15:35:34.473Z,52.30
2017-08-04T15:38:02.820Z,52.50
2017-08-04T15:40:30.448Z,52.50
2017-08-04T15:42:58.025Z,52.90
2017-08-04T15:45:25.586Z,52.40
2017-08-04T15:47:53.226Z,51.60
2017-08-04T15:50:20.796Z,51.20
2017-08-04T15:52:48.387Z,51.00
2017-08-04T15:55:16.774Z,52.10
2017-08-04T15:57:44.343Z,52.10
2017-08-04T16:00:11.938Z,51.60
2017-08-04T16:02:40.590Z,51.30
2017-08-04T16:05:08.968Z,52.40
2017-08-04T16:07:37.302Z,52.60
2017-08-04T16:10:05.140Z,52.40
2017-08-04T16:12:32.708Z,52.70
2017-08-04T16:15:01.043Z,53.60
2017-08-04T16:17:28.655Z,53.10
2017-08-04T16:19:56.228Z,53.70
2017-08-04T16:22:23.822Z,54.20
2017-08-04T16:24:51.439Z,54.10
2017-08-04T16:27:19.075Z,54.60
2017-08-04T16:29:46.652Z,54.70
2017-08-04T16:32:15.054Z,55.30
2017-08-04T16:34:42.642Z,55.20
2017-08-04T16:37:10.219Z,54.90
2017-08-04T16:39:37.855Z,54.60
2017-08-04T16:42:06.203Z,55.50
2017-08-04T16:44:34.544Z,56.10
2017-08-04T16:47:02.158Z,55.50
2017-08-04T16:49:29.723Z,55.40
2017-08-04T16:51:57.309Z,55.50
2017-08-04T16:54:25.705Z,55.70
2017-08-04T16:56:53.298Z,55.60
2017-08-04T16:59:20.885Z,55.30
2017-08-04T17:01:48.500Z,55.70
2017-08-04T17:04:16.834Z,55.90
2017-08-04T17:06:44.414Z,55.90
2017-08-04T17:09:12.830Z,56.10
2017-08-04T17:11:40.421Z,56.00
2017-08-04T17:14:08.770Z,56.30
2017-08-04T17:16:37.191Z,56.60
2017-08-04T17:19:04.925Z,56.10
2017-08-04T17:21:32.513Z,55.80
2017-08-04T17:24:00.246Z,56.10
2017-08-04T17:26:27.838Z,56.20
2017-08-04T17:28:55.429Z,56.40
2017-08-04T17:31:23.083Z,56.60
2017-08-04T17:33:50.654Z,56.40
2017-08-04T17:36:18.995Z,56.80
2017-08-04T17:38:46.623Z,56.10
2017-08-04T17:41:14.968Z,55.70
2017-08-04T17:43:43.315Z,55.80
2017-08-04T17:46:10.951Z,55.70
2017-08-04T17:48:38.528Z,55.90
2017-08-04T17:51:06.872Z,56.10
2017-08-04T17:53:34.502Z,56.00
2017-08-04T17:56:02.138Z,56.50
2017-08-04T17:58:35.732Z,57.00
2017-08-04T18:01:03.313Z,57.20
2017-08-04T18:03:31.644Z,57.90
2017-08-04T18:05:59.246Z,57.80
2017-08-04T18:08:26.828Z,58.20
2017-08-04T18:10:54.400Z,58.20
2017-08-04T18:13:22.783Z,58.40
2017-08-04T18:15:50.346Z,58.40
2017-08-04T18:18:17.942Z,58.70
2017-08-04T18:20:45.675Z,58.50
2017-08-04T18:23:13.412Z,58.60
2017-08-04T18:25:40.984Z,58.50
2017-08-04T18:28:09.384Z,58.90
2017-08-04T18:30:37.068Z,58.80
2017-08-04T18:33:04.652Z,59.20
2017-08-04T18:35:33.084Z,60.00
2017-08-04T18:38:00.664Z,60.00
2017-08-04T18:40:29.088Z,60.20
2017-08-04T18:42:56.993Z,60.10
2017-08-04T18:45:24.555Z,60.70
2017-08-04T18:47:52.140Z,61.30
2017-08-04T18:50:19.782Z,61.60
2017-08-04T18:52:47.360Z,61.70
2017-08-04T18:55:15.728Z,62.20
2017-08-04T18:57:43.339Z,62.10
2017-08-04T19:00:10.934Z,62.10
2017-08-04T19:02:38.499Z,62.40
2017-08-04T19:05:06.144Z,62.60
2017-08-04T19:07:33.728Z,62.80
2017-08-04T19:10:02.089Z,63.30
2017-08-04T19:12:30.479Z,63.90
2017-08-04T19:14:58.060Z,63.90
2017-08-04T19:17:25.654Z,64.20
2017-08-04T19:19:54.246Z,64.80
2017-08-04T19:22:21.834Z,64.80
2017-08-04T19:24:49.403Z,65.00
2017-08-04T19:27:17.800Z,65.30
2017-08-04T19:29:45.379Z,65.20
2017-08-04T19:32:12.952Z,65.80
2017-08-04T19:34:41.535Z,66.30
2017-08-04T19:37:09.119Z,66.20
2017-08-04T19:39:36.714Z,66.30
2017-08-04T19:42:04.352Z,66.80
2017-08-04T19:44:31.946Z,67.50
2017-08-04T19:46:59.520Z,67.70
2017-08-04T19:49:27.145Z,67.40
2017-08-04T19:51:54.728Z,67.70
2017-08-04T19:54:22.309Z,68.20
2017-08-04T19:56:50.172Z,68.20
2017-08-04T19:59:17.759Z,68.50
2017-08-04T20:01:45.352Z,68.50
2017-08-04T20:04:12.983Z,68.50
2017-08-04T20:06:40.577Z,68.50
2017-08-04T20:09:08.152Z,68.70
2017-08-04T20:11:35.776Z,68.80
2017-08-04T20:14:03.359Z,68.70
2017-08-04T20:16:31.713Z,69.00
2017-08-04T20:19:00.113Z,69.30
2017-08-04T20:21:27.687Z,69.10
2017-08-04T20:23:55.262Z,69.50
2017-08-04T20:26:22.871Z,69.70
2017-08-04T20:28:50.450Z,69.90
2017-08-04T20:31:18.121Z,70.20
2017-08-04T20:33:45.988Z,70.50
2017-08-04T20:36:13.562Z,70.70
2017-08-04T20:38:41.222Z,70.90
2017-08-04T20:41:08.854Z,71.00
2017-08-04T20:43:36.435Z,71.20
2017-08-04T20:46:03.998Z,71.50
2017-08-04T20:48:31.908Z,71.70
2017-08-04T20:50:59.484Z,72.00
2017-08-04T20:53:27.072Z,72.10
2017-08-04T20:55:55.464Z,72.10
2017-08-04T20:58:23.049Z,72.00
2017-08-04T21:00:50.662Z,71.90
2017-08-04T21:03:18.292Z,71.90
2017-08-04T21:05:45.890Z,71.90
2017-08-04T21:08:14.253Z,72.90
2017-08-04T21:10:41.901Z,72.30
2017-08-04T21:13:09.484Z,72.10
2017-08-04T21:15:37.068Z,72.00
2017-08-04T21:18:04.692Z,72.10
2017-08-04T21:20:32.268Z,71.80
2017-08-04T21:22:59.844Z,71.90
2017-08-04T21:25:27.485Z,72.00
2017-08-04T21:27:55.851Z,70.00
2017-08-04T21:30:23.433Z,70.00
2017-08-04T21:32:51.238Z,70.00
2017-08-04T21:35:19.592Z,69.90
2017-08-04T21:37:47.945Z,70.00
2017-08-04T21:40:16.332Z,70.10
2017-08-04T21:42:43.926Z,70.10
2017-08-04T21:45:11.508Z,69.80
2017-08-04T21:47:39.136Z,69.90
2017-08-04T21:50:07.502Z,69.70
2017-08-04T21:52:35.856Z,69.70
2017-08-04T21:55:04.251Z,69.50
2017-08-04T21:57:31.935Z,69.50
2017-08-04T21:59:59.533Z,69.50
2017-08-04T22:02:27.155Z,69.50
2017-08-04T22:04:55.547Z,69.60
2017-08-04T22:07:23.150Z,69.60
2017-08-04T22:09:50.782Z,69.90
2017-08-04T22:12:18.377Z,70.20
2017-08-04T22:14:45.951Z,70.50
2017-08-04T22:17:13.558Z,70.70
2017-08-04T22:19:41.127Z,70.90
2017-08-04T22:22:08.703Z,71.10
2017-08-04T22:24:36.396Z,71.10
2017-08-04T22:27:03.976Z,71.40
2017-08-04T22:29:31.568Z,71.30
2017-08-04T22:31:59.191Z,71.50
2017-08-04T22:34:26.775Z,71.40
2017-08-04T22:36:54.348Z,71.50
2017-08-04T22:39:21.967Z,71.70
2017-08-04T22:41:49.550Z,71.70
2017-08-04T22:44:17.142Z,71.70
2017-08-04T22:46:44.776Z,71.70
2017-08-04T22:49:12.369Z,71.70
2017-08-04T22:51:40.721Z,71.50
2017-08-04T22:54:09.393Z,71.90
2017-08-04T22:56:37.762Z,71.60
2017-08-04T22:59:06.112Z,71.70
2017-08-04T23:01:33.740Z,71.60
2017-08-04T23:04:01.324Z,71.40
2017-08-04T23:06:28.916Z,71.80
2017-08-04T23:08:56.549Z,72.00
2017-08-04T23:11:24.146Z,71.90
2017-08-04T23:13:52.501Z,71.70
2017-08-04T23:16:20.899Z,71.40
2017-08-04T23:18:48.540Z,71.50
2017-08-04T23:21:16.161Z,71.70
2017-08-04T23:23:44.580Z,71.90
2017-08-04T23:26:12.166Z,71.80
2017-08-04T23:28:40.520Z,72.10
2017-08-04T23:31:08.161Z,72.00
2017-08-04T23:33:35.743Z,72.00
2017-08-04T23:36:03.324Z,72.30
2017-08-04T23:38:31.064Z,72.60
2017-08-04T23:40:58.656Z,72.70
2017-08-04T23:43:26.256Z,72.70
2017-08-04T23:45:53.880Z,72.80
2017-08-04T23:48:21.460Z,72.80
2017-08-04T23:50:49.838Z,73.80
2017-08-04T23:53:17.451Z,73.10
2017-08-04T23:55:45.054Z,73.60
2017-08-04T23:58:12.654Z,73.50
